Tor Futura — OZZE2 — position and weather

sailwx.info

Track history (hours):
 
Tides and Currents Weather Stations Pressure Air Temp Water Temp Dewpoint Dewpoint Depression Visibility Wind Speed Wind Dir Waves Ship Positions

Tor Futura

Last reported at 2014-Nov-21 01:30 UTC. Time now 2014-Nov-21 04:39 UTC.
Position N 42°48' E 005°27'.

Length 183.1 m; beam 25.2 m; draft 7.8 m.

Type: Cargo ship. MMSI: 219927000.

Date/timePositionNaut miles runAvg speedWind from/ knotsBaromVisibWave heightAir tempDewpointWater temp
2014-Nov-21 01:30N 42°48' E 005°27'1717.4
2014-Nov-21 00:32N 42°33' E 005°38'1514.6
2014-Nov-20 23:29N 42°46' E 005°28'1414.6
2014-Nov-20 22:33N 42°58' E 005°19'1515.1
2014-Nov-20 21:33N 43°12' E 005°09'1211.8
2014-Nov-20 20:33N 43°21' E 005°19'2 2.4
2014-Nov-20 19:32N 43°19' E 005°22'0 0.0
2014-Nov-20 18:32N 43°19' E 005°22'0 0.0
2014-Nov-20 17:29N 43°19' E 005°22'0 0.0
2014-Nov-20 16:32N 43°19' E 005°22'0 0.0
2014-Nov-20 15:32N 43°19' E 005°22'0 0.0
2014-Nov-20 14:32N 43°19' E 005°22'0 0.0
2014-Nov-20 13:32N 43°19' E 005°22'0 0.0
2014-Nov-20 12:32N 43°19' E 005°22'0 0.0
2014-Nov-20 11:32N 43°19' E 005°22'0 0.0
2014-Nov-20 10:23N 43°19' E 005°22'0 0.0
2014-Nov-20 09:26N 43°19' E 005°22'0 0.0
2014-Nov-20 08:32N 43°19' E 005°22'0 0.0
2014-Nov-20 07:33N 43°19' E 005°22'5 4.5
2014-Nov-20 06:33N 43°19' E 005°15'1111.4
2014-Nov-20 05:34N 43°08' E 005°14'1514.4
2014-Nov-20 04:33N 42°55' E 005°23'1414.5
2014-Nov-20 03:33N 42°42' E 005°32'1614.5
2014-Nov-20 02:26N 42°28' E 005°44'20014.3
2014-Nov-19 12:28N 39°33' E 007°51'2914.4
2014-Nov-19 10:25N 39°06' E 008°08'2216.4
2014-Nov-19 09:05N 38°49' E 008°25'1014.4
2014-Nov-19 08:22N 38°43' E 008°35'1214.6
2014-Nov-19 07:33N 38°35' E 008°47'  
2014-Nov-17 03:05N 37°14' E 010°25'11213.0
2014-Nov-16 18:30N 38°33' E 008°44'1414.0
2014-Nov-16 17:32N 38°43' E 008°32'1814.0
2014-Nov-16 16:12N 38°57' E 008°17'1013.9
2014-Nov-16 15:31N 39°05' E 008°11'1714.0
2014-Nov-16 14:19N 39°20' E 008°00'1314.2
2014-Nov-16 13:24N 39°31' E 007°52'20713.8
2014-Nov-15 22:25N 42°33' E 005°39'1213.7
2014-Nov-15 21:33N 42°43' E 005°31'1413.7
2014-Nov-15 20:34N 42°55' E 005°22'1713.8
2014-Nov-15 19:18N 43°10' E 005°11'912.0
2014-Nov-15 18:34N 43°19' E 005°14'6 5.5
2014-Nov-15 17:32N 43°19' E 005°22'0 0.0
2014-Nov-15 16:32N 43°19' E 005°22'0 0.0
2014-Nov-15 15:32N 43°19' E 005°22'0 0.0
2014-Nov-15 14:26N 43°19' E 005°22'0 0.0
2014-Nov-15 13:32N 43°19' E 005°22'0 0.0
2014-Nov-15 12:32N 43°19' E 005°22'0 0.0
2014-Nov-15 11:32N 43°19' E 005°22'0 0.0
2014-Nov-15 10:29N 43°19' E 005°22'0 0.0
2014-Nov-15 09:32N 43°19' E 005°22'0 0.0
2014-Nov-15 08:29N 43°19' E 005°22'0 0.0
2014-Nov-15 07:32N 43°19' E 005°22'0 0.0
2014-Nov-15 06:33N 43°19' E 005°22'4 4.3
2014-Nov-15 05:34N 43°19' E 005°16'1212.1
2014-Nov-15 04:33N 43°07' E 005°13'1817.6
2014-Nov-15 03:33N 42°51' E 005°24'10 9.4
2014-Nov-15 02:31N 42°44' E 005°32'1414.1
2014-Nov-15 01:33N 42°32' E 005°42'1816.2
2014-Nov-15 00:26N 42°16' E 005°53'19616.4
2014-Nov-14 12:32N 39°24' E 007°58'2016.8
2014-Nov-14 11:21N 39°07' E 008°10'3216.1
2014-Nov-14 09:24N 38°42' E 008°35'1416.3
2014-Nov-14 08:33N 38°33' E 008°49'  
Track history (hours):
 
Tides and Currents Weather Stations Pressure Air Temp Water Temp Dewpoint Dewpoint Depression Visibility Wind Speed Wind Dir Waves Ship Positions

Tor Futura

Last reported at 2014-Nov-21 01:30 UTC. Time now 2014-Nov-21 04:39 UTC.
Position N 42°48' E 005°27'.

Length 183.1 m; beam 25.2 m; draft 7.8 m.

Type: Cargo ship. MMSI: 219927000.

Date/timePositionNaut miles runAvg speedWind from/ knotsBaromVisibWave heightAir tempDewpointWater temp
2014-Nov-21 01:30N 42°48' E 005°27'1717.4
2014-Nov-21 00:32N 42°33' E 005°38'1514.6
2014-Nov-20 23:29N 42°46' E 005°28'1414.6
2014-Nov-20 22:33N 42°58' E 005°19'1515.1
2014-Nov-20 21:33N 43°12' E 005°09'1211.8
2014-Nov-20 20:33N 43°21' E 005°19'2 2.4
2014-Nov-20 19:32N 43°19' E 005°22'0 0.0
2014-Nov-20 18:32N 43°19' E 005°22'0 0.0
2014-Nov-20 17:29N 43°19' E 005°22'0 0.0
2014-Nov-20 16:32N 43°19' E 005°22'0 0.0
2014-Nov-20 15:32N 43°19' E 005°22'0 0.0
2014-Nov-20 14:32N 43°19' E 005°22'0 0.0
2014-Nov-20 13:32N 43°19' E 005°22'0 0.0
2014-Nov-20 12:32N 43°19' E 005°22'0 0.0
2014-Nov-20 11:32N 43°19' E 005°22'0 0.0
2014-Nov-20 10:23N 43°19' E 005°22'0 0.0
2014-Nov-20 09:26N 43°19' E 005°22'0 0.0
2014-Nov-20 08:32N 43°19' E 005°22'0 0.0
2014-Nov-20 07:33N 43°19' E 005°22'5 4.5
2014-Nov-20 06:33N 43°19' E 005°15'1111.4
2014-Nov-20 05:34N 43°08' E 005°14'1514.4
2014-Nov-20 04:33N 42°55' E 005°23'1414.5
2014-Nov-20 03:33N 42°42' E 005°32'1614.5
2014-Nov-20 02:26N 42°28' E 005°44'20014.3
2014-Nov-19 12:28N 39°33' E 007°51'2914.4
2014-Nov-19 10:25N 39°06' E 008°08'2216.4
2014-Nov-19 09:05N 38°49' E 008°25'1014.4
2014-Nov-19 08:22N 38°43' E 008°35'1214.6
2014-Nov-19 07:33N 38°35' E 008°47'  
2014-Nov-17 03:05N 37°14' E 010°25'11213.0
2014-Nov-16 18:30N 38°33' E 008°44'1414.0
2014-Nov-16 17:32N 38°43' E 008°32'1814.0
2014-Nov-16 16:12N 38°57' E 008°17'1013.9
2014-Nov-16 15:31N 39°05' E 008°11'1714.0
2014-Nov-16 14:19N 39°20' E 008°00'1314.2
2014-Nov-16 13:24N 39°31' E 007°52'20713.8
2014-Nov-15 22:25N 42°33' E 005°39'1213.7
2014-Nov-15 21:33N 42°43' E 005°31'1413.7
2014-Nov-15 20:34N 42°55' E 005°22'1713.8
2014-Nov-15 19:18N 43°10' E 005°11'912.0
2014-Nov-15 18:34N 43°19' E 005°14'6 5.5
2014-Nov-15 17:32N 43°19' E 005°22'0 0.0
2014-Nov-15 16:32N 43°19' E 005°22'0 0.0
2014-Nov-15 15:32N 43°19' E 005°22'0 0.0
2014-Nov-15 14:26N 43°19' E 005°22'0 0.0
2014-Nov-15 13:32N 43°19' E 005°22'0 0.0
2014-Nov-15 12:32N 43°19' E 005°22'0 0.0
2014-Nov-15 11:32N 43°19' E 005°22'0 0.0
2014-Nov-15 10:29N 43°19' E 005°22'0 0.0
2014-Nov-15 09:32N 43°19' E 005°22'0 0.0
2014-Nov-15 08:29N 43°19' E 005°22'0 0.0
2014-Nov-15 07:32N 43°19' E 005°22'0 0.0
2014-Nov-15 06:33N 43°19' E 005°22'4 4.3
2014-Nov-15 05:34N 43°19' E 005°16'1212.1
2014-Nov-15 04:33N 43°07' E 005°13'1817.6
2014-Nov-15 03:33N 42°51' E 005°24'10 9.4
2014-Nov-15 02:31N 42°44' E 005°32'1414.1
2014-Nov-15 01:33N 42°32' E 005°42'1816.2
2014-Nov-15 00:26N 42°16' E 005°53'19616.4
2014-Nov-14 12:32N 39°24' E 007°58'2016.8
2014-Nov-14 11:21N 39°07' E 008°10'3216.1
2014-Nov-14 09:24N 38°42' E 008°35'1416.3
2014-Nov-14 08:33N 38°33' E 008°49'  

Dump ship's entire track history